Latest Weather Observations for Sydney - Observatory Hill

IDN60801

Issued at 9:35 am EDT Saturday 25 October 2014 (issued every 30 minutes, with the page automatically refreshed every 10 minutes)

About weather observations | Map of weather stations | Latest weather observations for NSW | Other Formats
Station Details ID: 066062 Name: SYDNEY (OBSERVATORY HILL) Lat: -33.86 Lon: 151.21 Height: 39.0 m
Data from the previous 72 hours. | See also: Recent months at Sydney - Observatory Hill

* Apparent temperature (App Temp) for Sydney - Observatory Hill is calculated using temperature observations collected at Sydney - Observatory Hill and wind observations collected at Fort Denison, as wind observations are not currently provided for Sydney - Observatory Hill.

Date/Time
EDT
Temp
°C
App
Temp
°C
Dew
Point
Rel
Hum
%
Delta-T
°C
Wind Press
QNH
hPa
Press
MSL
hPa
Rain
since 9 am
mm
Dir
 
Spd
km/h
Gust
km/h
Spd
kts
Gust
kts
25/09:30am 23.8 23.8 18.2 71 3.5 WNW 15 - 8 - 1015.6 1015.6 0.0
25/09:00am 21.0 20.0 17.6 81 2.1 W 19 - 10 - 1015.3 1015.3 0.2
25/08:30am 19.4 19.7 17.9 91 0.9 W 13 - 7 - 1015.1 1015.1 0.2
25/08:00am 18.9 18.7 17.6 92 0.8 W 15 - 8 - 1015.2 1015.2 0.2
25/07:30am 18.6 19.0 17.3 92 0.8 W 11 - 6 - 1015.0 1015.0 0.2
25/07:00am 18.6 19.0 17.3 92 0.8 W 11 - 6 - 1014.6 1014.5 0.2
25/06:30am 18.6 18.9 17.1 91 0.9 W 11 - 6 - 1014.3 1014.2 0.2
25/06:00am 18.5 19.2 17.0 91 0.9 W 9 - 5 - 1013.6 1013.5 0.2
25/05:30am 18.7 19.1 17.2 91 0.9 WNW 11 - 6 - 1012.9 1012.8 0.2
25/05:00am 18.7 19.4 17.0 90 1.0 W 9 - 5 - 1012.6 1012.5 0.2
25/04:30am 18.7 18.5 16.8 89 1.1 W 13 - 7 - 1012.4 1012.3 0.2
25/04:00am 18.9 20.2 17.0 89 1.2 WNW 6 - 3 - 1012.3 1012.2 0.2
25/03:30am 18.9 19.9 16.9 88 1.2 S 7 - 4 - 1012.3 1012.2 0.2
25/03:00am 19.1 20.3 16.9 87 1.3 WNW 6 - 3 - 1012.3 1012.2 0.2
25/02:30am 19.3 20.9 16.9 86 1.5 WSW 4 - 2 - 1012.2 1012.1 0.2
25/02:00am 19.6 20.3 17.0 85 1.6 WNW 9 - 5 - 1012.0 1011.9 0.2
25/01:30am 19.9 20.9 16.9 83 1.8 W 7 - 4 - 1012.1 1012.0 0.2
25/01:00am 20.3 22.3 16.9 81 2.1 S 2 - 1 - 1012.3 1012.2 0.2
25/12:30am 20.7 22.7 16.9 79 2.3 SSE 2 - 1 - 1012.4 1012.3 0.2
25/12:00am 21.0 20.9 17.0 78 2.4 SSE 13 - 7 - 1012.7 1012.6 0.2
 
Date/Time
EDT
Temp
°C
App
Temp
°C
Dew
Point
Rel
Hum
%
Delta-T
°C
Wind Press
QNH
hPa
Press
MSL
hPa
Rain
since 9 am
mm
Dir
 
Spd
km/h
Gust
km/h
Spd
kts
Gust
kts
24/11:30pm 21.0 22.9 16.8 77 2.6 ESE 2 - 1 - 1012.5 1012.4 0.2
24/11:00pm 21.1 21.4 16.9 77 2.6 E 11 - 6 - 1011.9 1011.8 0.2
24/10:30pm 21.5 21.8 16.9 75 2.8 E 11 - 6 - 1012.3 1012.2 0.2
24/10:00pm 21.0 22.0 16.8 77 2.6 N 7 - 4 - 1013.5 1013.4 0.2
24/09:30pm 21.2 19.1 17.2 78 2.5 NNE 24 - 13 - 1013.3 1013.2 0.2
24/09:00pm 21.2 18.3 17.0 77 2.6 NNE 28 - 15 - 1012.8 1012.7 0.2
24/08:30pm 21.4 18.1 17.0 76 2.7 NNE 30 - 16 - 1012.8 1012.7 0.2
24/08:00pm 21.5 18.6 17.1 76 2.7 NNE 28 - 15 - 1012.7 1012.6 0.2
24/07:30pm 21.9 18.9 16.8 73 3.1 NNE 28 - 15 - 1012.5 1012.4 0.2
24/07:00pm 22.5 19.2 17.0 71 3.4 NNE 30 - 16 - 1012.4 1012.3 0.2
24/06:30pm 22.5 20.0 17.0 71 3.4 NNE 26 - 14 - 1012.4 1012.3 0.2
24/06:00pm 22.5 20.0 17.0 71 3.4 NE 26 - 14 - 1012.5 1012.4 0.2
24/05:30pm 22.6 20.9 17.1 71 3.4 NNE 22 - 12 - 1012.7 1012.6 0.2
24/05:00pm 22.9 19.9 16.7 68 3.8 NE 28 - 15 - 1013.0 1012.9 0.2
24/04:30pm 23.0 20.1 17.0 69 3.7 NE 28 - 15 - 1013.3 1013.2 0.2
24/04:00pm 23.0 20.1 17.0 69 3.7 NE 28 - 15 - 1013.7 1013.6 0.2
24/03:30pm 23.2 20.8 17.4 70 3.6 NE 26 - 14 - 1014.2 1014.1 0.2
24/03:00pm 23.1 19.9 17.3 70 3.6 ENE 30 - 16 - 1014.9 1014.9 0.2
24/02:30pm 23.2 20.7 17.2 69 3.7 ENE 26 - 14 - 1015.4 1015.4 0.2
24/02:00pm 22.9 20.0 17.1 70 3.6 ENE 28 - 15 - 1015.9 1015.9 0.2
24/01:30pm 23.3 21.3 17.3 69 3.7 ENE 24 - 13 - 1016.6 1016.6 0.2
24/01:00pm 24.2 22.4 17.0 64 4.4 E 22 - 12 - 1016.9 1016.9 0.2
24/12:30pm 25.3 24.0 17.2 61 5.0 E 20 - 11 - 1017.3 1017.3 0.2
24/12:00pm 25.8 26.2 17.2 59 5.4 N 11 - 6 - 1018.0 1018.0 0.2
24/11:30am 24.4 26.1 18.1 68 4.0 NE 6 - 3 - 1018.6 1018.6 0.2
24/11:00am 22.2 22.6 17.3 74 3.0 E 11 - 6 - 1019.5 1019.5 0.2
24/10:30am 21.8 21.8 16.3 71 3.3 WSW 11 - 6 - 1020.2 1020.1 0.0
24/10:00am 23.5 23.8 17.0 67 4.0 NNW 11 - 6 - 1019.9 1019.8 0.0
24/09:30am 22.6 22.1 16.9 70 3.5 NNW 15 - 8 - 1020.0 1019.9 0.0
24/09:00am 22.0 22.3 18.0 78 2.5 NNW 13 - 7 - 1020.2 1020.1 0.0
24/08:30am 20.2 21.4 17.4 84 1.7 N 7 - 4 - 1020.1 1020.0 0.0
24/08:00am 20.0 22.3 17.6 86 1.5 W 2 - 1 - 1020.3 1020.2 0.0
24/07:30am 19.4 18.0 17.0 86 1.5 E 20 - 11 - 1019.0 1019.0 0.0
24/07:00am 19.6 19.8 16.8 84 1.7 SE 11 - 6 - 1020.4 1020.3 0.0
24/06:30am 19.3 19.6 16.9 86 1.5 SE 11 - 6 - 1020.0 1019.9 0.0
24/06:00am 19.0 19.5 16.6 86 1.4 E 9 - 5 - 1020.0 1019.9 0.0
24/05:30am 18.8 19.8 16.4 86 1.4 W 6 - 3 - 1020.2 1020.1 0.0
24/05:00am 18.9 19.8 16.5 86 1.4 ENE 7 - 4 - 1019.8 1019.7 0.0
24/04:30am 18.7 19.5 16.3 86 1.4 NW 7 - 4 - 1020.1 1020.0 0.0
24/04:00am 19.0 17.5 16.8 87 1.3 W 20 - 11 - 1020.4 1020.3 0.0
24/03:30am 19.3 20.7 17.4 89 1.2 N 6 - 3 - 1019.2 1019.2 0.0
24/03:00am 19.4 19.5 17.5 89 1.2 E 13 - 7 - 1018.7 1018.7 0.0
24/02:30am 19.5 19.9 17.3 87 1.3 E 11 - 6 - 1018.8 1018.8 0.0
24/02:00am 19.4 19.7 17.0 86 1.5 SSE 11 - 6 - 1020.4 1020.3 0.0
24/01:30am 19.7 19.7 17.3 86 1.5 SSE 13 - 7 - 1020.7 1020.6 0.0
24/01:00am 19.8 20.6 17.4 86 1.5 SE 9 - 5 - 1020.6 1020.5 0.0
24/12:30am 19.8 20.9 17.0 84 1.7 SSE 7 - 4 - 1020.8 1020.7 0.0
24/12:00am 20.0 22.1 17.2 84 1.7 E 2 - 1 - 1020.7 1020.6 0.0
 
Date/Time
EDT
Temp
°C
App
Temp
°C
Dew
Point
Rel
Hum
%
Delta-T
°C
Wind Press
QNH
hPa
Press
MSL
hPa
Rain
since 9 am
mm
Dir
 
Spd
km/h
Gust
km/h
Spd
kts
Gust
kts
23/11:30pm 20.2 21.5 17.0 82 1.9 ESE 6 - 3 - 1020.5 1020.4 0.0
23/11:00pm 20.1 22.1 16.9 82 1.9 SSE 2 - 1 - 1020.6 1020.5 0.0
23/10:30pm 20.2 22.4 17.4 84 1.7 SE 2 - 1 - 1020.6 1020.5 0.0
23/10:00pm 20.2 21.0 17.4 84 1.7 ESE 9 - 5 - 1020.1 1020.0 0.0
23/09:30pm 20.3 20.6 17.1 82 2.0 E 11 - 6 - 1019.9 1019.8 0.0
23/09:00pm 20.5 22.2 17.1 81 2.1 ESE 4 - 2 - 1019.9 1019.8 0.0
23/08:30pm 20.4 22.1 16.2 77 2.5 E 2 - 1 - 1019.3 1019.3 0.0
23/08:00pm 20.5 21.9 16.3 77 2.5 E 4 - 2 - 1019.1 1019.1 0.0
23/07:30pm 20.6 21.7 16.6 78 2.4 E 6 - 3 - 1018.5 1018.5 0.0
23/07:00pm 20.9 22.1 16.9 78 2.4 E 6 - 3 - 1018.2 1018.2 0.0
23/06:30pm 21.3 21.6 16.9 76 2.7 ENE 11 - 6 - 1017.9 1017.9 0.0
23/06:00pm 21.8 22.8 16.3 71 3.3 E 6 - 3 - 1017.6 1017.6 0.0
23/05:30pm 22.2 22.1 16.0 68 3.7 E 11 - 6 - 1017.1 1017.1 0.0
23/05:00pm 22.6 22.4 15.7 65 4.1 E 11 - 6 - 1016.8 1016.8 0.0
23/04:30pm 22.9 22.2 15.5 63 4.4 ENE 13 - 7 - 1016.7 1016.7 0.0
23/04:00pm 23.0 21.4 15.1 61 4.7 E 17 - 9 - 1016.2 1016.2 0.0
23/03:30pm 23.2 21.7 15.3 61 4.7 ENE 17 - 9 - 1016.2 1016.2 0.0
23/03:00pm 25.1 23.2 15.7 56 5.7 E 20 - 11 - 1015.9 1015.9 0.0
23/02:30pm 24.5 21.5 14.9 55 5.7 E 24 - 13 - 1016.1 1016.1 0.0
23/02:00pm 25.6 22.7 14.1 49 6.8 E 22 - 12 - 1016.4 1016.4 0.0
23/01:30pm 27.5 26.0 15.2 47 7.5 E 17 - 9 - 1016.6 1016.6 0.0
23/01:00pm 26.7 24.6 14.8 48 7.2 E 19 - 10 - 1016.8 1016.8 0.0
23/12:30pm 27.2 25.8 14.6 46 7.6 E 15 - 8 - 1017.0 1017.0 0.0
23/12:00pm 27.3 25.7 14.0 44 7.9 E 15 - 8 - 1017.1 1017.1 0.0
23/11:30am 25.9 25.0 13.7 47 7.2 E 11 - 6 - 1017.3 1017.3 0.0
23/11:00am 25.5 25.4 14.0 49 6.8 E 7 - 4 - 1017.6 1017.6 0.0
23/10:30am 24.1 23.9 13.6 52 6.1 W 7 - 4 - 1017.9 1017.9 0.0
23/10:00am 23.0 22.6 12.9 53 5.8 WNW 7 - 4 - 1018.2 1018.2 0.0
23/09:30am 21.3 21.8 12.7 58 4.9 W 2 - 1 - 1018.2 1018.2 0.0
23/09:00am 19.7 19.4 12.7 64 3.9 W 6 - 3 - 1018.0 1018.0 0.0
23/08:30am 18.1 17.4 11.9 67 3.4 W 7 - 4 - 1018.2 1018.2 0.0
23/08:00am 17.6 16.3 12.5 72 2.8 WNW 11 - 6 - 1018.3 1018.3 0.0
23/07:30am 16.2 14.6 12.9 81 1.8 W 13 - 7 - 1018.4 1018.4 0.0
23/07:00am 15.3 15.0 12.8 85 1.4 WNW 6 - 3 - 1017.9 1017.9 0.0
23/06:30am 14.6 14.6 12.3 86 1.3 NW 4 - 2 - 1017.8 1017.8 0.0
23/06:00am 14.6 14.0 12.3 86 1.3 WNW 7 - 4 - 1017.7 1017.7 0.0
23/05:30am 14.7 14.6 12.2 85 1.4 NNW 4 - 2 - 1017.7 1017.7 0.0
23/05:00am 15.0 14.6 12.5 85 1.4 N 6 - 3 - 1017.6 1017.6 0.0
23/04:30am 15.1 14.7 12.4 84 1.5 NNW 6 - 3 - 1017.7 1017.7 0.0
23/04:00am 15.3 14.9 12.4 83 1.6 NW 6 - 3 - 1017.6 1017.6 0.0
23/03:30am 15.7 15.4 12.6 82 1.7 NW 6 - 3 - 1018.0 1018.0 0.0
23/03:00am 16.3 17.2 12.8 80 1.9 CALM 0 - 0 - 1018.0 1018.0 0.0
23/02:30am 16.5 16.7 13.0 80 2.0 N 4 - 2 - 1018.2 1018.2 0.0
23/02:00am 16.9 17.5 13.0 78 2.2 N 2 - 1 - 1018.7 1018.7 0.0
23/01:30am 17.2 17.8 13.1 77 2.3 N 2 - 1 - 1019.0 1019.0 0.0
23/01:00am 17.5 17.4 13.2 76 2.4 NNE 6 - 3 - 1019.3 1019.3 0.0
23/12:30am 17.7 17.5 13.0 74 2.6 NNE 6 - 3 - 1019.8 1019.7 0.0
23/12:00am 18.0 18.3 13.3 74 2.6 NE 4 - 2 - 1020.1 1020.0 0.0
 
Date/Time
EDT
Temp
°C
App
Temp
°C
Dew
Point
Rel
Hum
%
Delta-T
°C
Wind Press
QNH
hPa
Press
MSL
hPa
Rain
since 9 am
mm
Dir
 
Spd
km/h
Gust
km/h
Spd
kts
Gust
kts
22/11:30pm 18.2 18.1 13.3 73 2.8 N 6 - 3 - 1020.3 1020.2 0.0
22/11:00pm 18.4 18.2 13.5 73 2.8 NNW 7 - 4 - 1020.3 1020.2 0.0
22/10:30pm 18.4 14.5 13.3 72 2.9 NNE 26 - 14 - 1020.4 1020.3 0.0
22/10:00pm 18.7 14.4 13.3 71 3.1 NNE 28 - 15 - 1020.2 1020.1 0.0
22/09:30pm 18.8 14.4 13.0 69 3.3 NNE 28 - 15 - 1020.1 1020.0 0.0
22/09:00pm 18.9 14.6 13.1 69 3.3 NNE 28 - 15 - 1020.3 1020.2 0.0
22/08:30pm 18.9 14.4 12.6 67 3.5 NNE 28 - 15 - 1020.1 1020.0 0.0
22/08:00pm 18.9 14.7 12.4 66 3.6 NNE 26 - 14 - 1020.1 1020.0 0.0
22/07:30pm 19.0 15.4 12.0 64 3.9 NNE 22 - 12 - 1020.0 1019.9 0.0
22/07:00pm 19.2 15.6 12.0 63 4.0 NNE 22 - 12 - 1020.1 1020.0 0.0
22/06:30pm 19.4 16.1 11.7 61 4.3 NE 20 - 11 - 1020.2 1020.1 0.0
22/06:00pm 19.5 15.0 11.5 60 4.4 NE 26 - 14 - 1020.3 1020.2 0.0
22/05:30pm 20.5 17.4 12.2 59 4.7 NE 20 - 11 - 1020.4 1020.3 0.0
22/05:00pm 20.3 15.7 11.2 56 5.0 NE 26 - 14 - 1020.5 1020.4 0.0
22/04:30pm 20.3 16.5 11.0 55 5.1 NE 22 - 12 - 1020.8 1020.7 0.0
22/04:00pm 20.3 15.7 11.2 56 5.0 ENE 26 - 14 - 1021.1 1021.0 0.0
22/03:30pm 20.6 16.4 11.2 55 5.2 NE 24 - 13 - 1021.5 1021.4 0.0
22/03:00pm 20.4 15.4 10.8 54 5.2 NE 28 - 15 - 1022.1 1022.0 0.0
22/02:30pm 21.0 16.7 10.8 52 5.6 NE 24 - 13 - 1022.6 1022.5 0.0
22/02:00pm 20.6 16.0 11.2 55 5.2 NE 26 - 14 - 1023.2 1023.1 0.0
22/01:30pm 20.7 16.8 10.8 53 5.4 ENE 22 - 12 - 1023.7 1023.6 0.0
22/01:00pm 20.5 16.7 11.2 55 5.1 ENE 22 - 12 - 1024.4 1024.3 0.0
22/12:30pm 19.7 15.3 10.4 55 5.0 ENE 24 - 13 - 1025.0 1024.9 0.0
22/12:00pm 19.5 15.2 9.4 52 5.3 ENE 22 - 12 - 1025.6 1025.5 0.0
22/11:30am 19.4 16.0 10.4 56 4.9 ENE 19 - 10 - 1026.0 1025.9 0.0
22/11:00am 20.0 16.8 9.9 52 5.4 ENE 17 - 9 - 1026.4 1026.3 0.0
22/10:30am 19.4 15.3 8.7 50 5.6 NE 20 - 11 - 1026.8 1026.7 0.0
22/10:00am 19.3 14.7 8.3 49 5.7 NNE 22 - 12 - 1027.0 1026.9 0.0

Other Formats:

Comma delimited format used in spreadsheet applications
http://www.bom.gov.au/fwo/IDN60801/IDN60801.94768.axf

JavaScript Object Notation format (JSON) in row-major order
http://www.bom.gov.au/fwo/IDN60801/IDN60801.94768.json